createdAt,value
2018-12-21T00:01:36.813Z,100656.45
2018-12-21T00:04:04.669Z,100651.78
2018-12-21T00:06:32.179Z,100665.48
2018-12-21T00:08:59.901Z,100661.41
2018-12-21T00:11:27.309Z,100654.81
2018-12-21T00:13:55.080Z,100652.98
2018-12-21T00:16:22.843Z,100648.38
2018-12-21T00:18:50.515Z,100640.33
2018-12-21T00:21:21.984Z,100643.71
2018-12-21T00:23:47.928Z,100640.36
2018-12-21T00:26:15.845Z,100635.84
2018-12-21T00:28:43.553Z,100627.70
2018-12-21T00:31:17.921Z,100617.11
2018-12-21T00:33:57.248Z,100610.73
2018-12-21T00:36:36.297Z,100605.34
2018-12-21T00:39:15.368Z,100603.55
2018-12-21T00:41:48.704Z,100607.02
2018-12-21T00:44:49.569Z,100599.87
2018-12-21T00:47:17.981Z,100594.91
2018-12-21T00:49:45.749Z,100602.44
2018-12-21T00:52:13.647Z,100600.67
2018-12-21T00:54:41.149Z,100604.91
2018-12-21T00:57:08.700Z,100603.59
2018-12-21T00:59:36.192Z,100603.45
2018-12-21T01:02:04.097Z,100604.24
2018-12-21T01:04:31.560Z,100612.63
2018-12-21T01:06:59.367Z,100610.43
2018-12-21T01:09:27.207Z,100608.12
2018-12-21T01:11:55.253Z,100610.06
2018-12-21T01:14:22.715Z,100605.41
2018-12-21T01:16:50.401Z,100591.95
2018-12-21T01:19:17.823Z,100587.52
2018-12-21T01:21:45.379Z,100596.25
2018-12-21T01:24:13.092Z,100586.92
2018-12-21T01:26:40.728Z,100587.39
2018-12-21T01:29:08.449Z,100584.35
2018-12-21T01:31:36.095Z,100597.96
2018-12-21T01:34:03.861Z,100596.34
2018-12-21T01:36:31.483Z,100593.53
2018-12-21T01:38:58.965Z,100599.27
2018-12-21T01:41:26.531Z,100587.41
2018-12-21T01:43:54.167Z,100589.27
2018-12-21T01:46:24.548Z,100605.09
2018-12-21T01:48:52.040Z,100596.52
2018-12-21T01:51:19.644Z,100588.88
2018-12-21T01:53:47.332Z,100592.91
2018-12-21T01:56:15.086Z,100596.34
2018-12-21T01:58:42.740Z,100589.06
2018-12-21T02:01:10.322Z,100582.23
2018-12-21T02:03:37.742Z,100585.81
2018-12-21T02:06:05.367Z,100567.84
2018-12-21T02:08:32.757Z,100568.27
2018-12-21T02:11:00.374Z,100566.31
2018-12-21T02:13:27.903Z,100567.48
2018-12-21T02:15:55.509Z,100558.72
2018-12-21T02:18:23.247Z,100565.91
2018-12-21T02:20:50.605Z,100541.44
2018-12-21T02:23:18.131Z,100546.56
2018-12-21T02:25:45.707Z,100550.03
2018-12-21T02:28:13.199Z,100537.86
2018-12-21T02:30:40.904Z,100537.88
2018-12-21T02:33:08.471Z,100545.84
2018-12-21T02:35:36.028Z,100522.84
2018-12-21T02:38:03.691Z,100523.69
2018-12-21T02:40:31.279Z,100529.03
2018-12-21T02:42:58.843Z,100529.07
2018-12-21T02:45:26.311Z,100522.47
2018-12-21T02:47:53.815Z,100518.37
2018-12-21T02:50:21.399Z,100518.64
2018-12-21T02:52:49.035Z,100514.20
2018-12-21T02:55:16.443Z,100507.87
2018-12-21T02:57:43.961Z,100503.25
2018-12-21T03:00:11.697Z,100490.73
2018-12-21T03:02:39.188Z,100488.05
2018-12-21T03:05:06.794Z,100492.41
2018-12-21T03:07:34.499Z,100482.50
2018-12-21T03:10:02.176Z,100475.16
2018-12-21T03:12:29.861Z,100472.66
2018-12-21T03:14:57.308Z,100464.72
2018-12-21T03:17:24.763Z,100468.31
2018-12-21T03:19:52.335Z,100475.28
2018-12-21T03:22:19.929Z,100457.66
2018-12-21T03:24:47.371Z,100466.92
2018-12-21T03:27:14.851Z,100457.96
2018-12-21T03:29:42.515Z,100452.33
2018-12-21T03:32:10.255Z,100451.13
2018-12-21T03:34:37.738Z,100444.48
2018-12-21T03:37:05.369Z,100428.41
2018-12-21T03:39:32.850Z,100429.16
2018-12-21T03:42:00.377Z,100424.80
2018-12-21T03:44:27.940Z,100417.55
2018-12-21T03:46:55.481Z,100414.28
2018-12-21T03:49:22.954Z,100404.80
2018-12-21T03:51:50.459Z,100412.61
2018-12-21T03:54:18.043Z,100405.52
2018-12-21T03:56:45.519Z,100408.64
2018-12-21T03:59:13.249Z,100413.98
2018-12-21T04:01:40.800Z,100402.37
2018-12-21T04:04:08.397Z,100400.63
2018-12-21T04:06:35.998Z,100393.08
2018-12-21T04:09:05.966Z,100403.09
2018-12-21T04:11:33.373Z,100413.95
2018-12-21T04:14:00.903Z,100412.05
2018-12-21T04:16:28.284Z,100410.30
2018-12-21T04:18:56.018Z,100406.72
2018-12-21T04:21:23.597Z,100410.89
2018-12-21T04:23:51.071Z,100409.22
2018-12-21T04:26:18.635Z,100411.91
2018-12-21T04:28:46.212Z,100402.78
2018-12-21T04:31:13.840Z,100406.97
2018-12-21T04:33:44.270Z,100399.88
2018-12-21T04:36:11.956Z,100398.05
2018-12-21T04:38:39.429Z,100398.00
2018-12-21T04:41:06.883Z,100398.00
2018-12-21T04:43:34.361Z,100392.75
2018-12-21T04:46:01.899Z,100387.00
2018-12-21T04:48:29.520Z,100383.21
2018-12-21T04:50:56.967Z,100371.87
2018-12-21T04:53:24.495Z,100374.09
2018-12-21T04:55:52.130Z,100370.52
2018-12-21T04:58:19.617Z,100368.75
2018-12-21T05:00:47.193Z,100355.56
2018-12-21T05:03:14.739Z,100354.70
2018-12-21T05:05:42.364Z,100354.57
2018-12-21T05:08:09.853Z,100345.95
2018-12-21T05:10:37.223Z,100343.48
2018-12-21T05:13:04.871Z,100335.81
2018-12-21T05:15:32.332Z,100319.70
2018-12-21T05:17:59.983Z,100310.14
2018-12-21T05:20:27.439Z,100299.84
2018-12-21T05:22:55.073Z,100301.08
2018-12-21T05:25:22.546Z,100302.64
2018-12-21T05:27:50.123Z,100291.53
2018-12-21T05:30:17.746Z,100275.78
2018-12-21T05:32:45.246Z,100281.13
2018-12-21T05:35:12.768Z,100277.61
2018-12-21T05:37:40.724Z,100271.61
2018-12-21T05:40:08.302Z,100269.61
2018-12-21T05:42:36.036Z,100264.21
2018-12-21T05:45:04.388Z,100253.20
2018-12-21T05:47:32.236Z,100277.53
2018-12-21T05:49:59.876Z,100278.65
2018-12-21T05:52:27.254Z,100275.77
2018-12-21T05:54:54.896Z,100258.95
2018-12-21T05:57:22.639Z,100249.16
2018-12-21T05:59:50.104Z,100236.52
2018-12-21T06:02:17.672Z,100234.20
2018-12-21T06:04:45.391Z,100227.02
2018-12-21T06:07:12.993Z,100208.66
2018-12-21T06:09:40.591Z,100196.02
2018-12-21T06:12:08.174Z,100193.67
2018-12-21T06:14:35.527Z,100197.50
2018-12-21T06:17:03.076Z,100185.87
2018-12-21T06:19:30.671Z,100185.44
2018-12-21T06:21:58.111Z,100168.98
2018-12-21T06:24:25.659Z,100172.77
2018-12-21T06:26:53.008Z,100174.88
2018-12-21T06:29:20.632Z,100168.12
2018-12-21T06:31:48.283Z,100156.08
2018-12-21T06:34:15.890Z,100148.38
2018-12-21T06:36:43.410Z,100145.73
2018-12-21T06:39:10.918Z,100126.66
2018-12-21T06:41:38.650Z,100118.61
2018-12-21T06:44:06.228Z,100106.30
2018-12-21T06:46:33.719Z,100101.96
2018-12-21T06:49:01.288Z,100099.34
2018-12-21T06:51:28.868Z,100087.88
2018-12-21T06:53:56.348Z,100091.02
2018-12-21T06:56:24.201Z,100090.48
2018-12-21T06:58:51.656Z,100087.61
2018-12-21T07:01:19.367Z,100078.69
2018-12-21T07:03:46.732Z,100072.48
2018-12-21T07:06:14.341Z,100067.14
2018-12-21T07:08:41.791Z,100065.95
2018-12-21T07:11:09.332Z,100061.31
2018-12-21T07:13:36.983Z,100055.30
2018-12-21T07:16:04.537Z,100059.58
2018-12-21T07:18:32.157Z,100054.41
2018-12-21T07:20:59.463Z,100041.66
2018-12-21T07:23:27.600Z,100047.50
2018-12-21T07:25:55.371Z,100049.52
2018-12-21T07:28:23.023Z,100051.58
2018-12-21T07:30:50.577Z,100040.59
2018-12-21T07:33:18.159Z,100038.02
2018-12-21T07:35:45.804Z,100026.21
2018-12-21T07:38:13.287Z,100019.27
2018-12-21T07:40:40.987Z,100023.34
2018-12-21T07:43:08.483Z,100010.58
2018-12-21T07:45:36.086Z,100003.32
2018-12-21T07:48:03.645Z,100000.80
2018-12-21T07:50:31.289Z,99986.63
2018-12-21T07:52:58.932Z,99986.54
2018-12-21T07:55:26.429Z,99969.52
2018-12-21T07:57:54.043Z,99969.52
2018-12-21T08:00:21.777Z,99963.45
2018-12-21T08:02:49.414Z,99963.63
2018-12-21T08:05:16.977Z,99957.67
2018-12-21T08:07:44.615Z,99954.92
2018-12-21T08:10:15.327Z,99956.23
2018-12-21T08:12:43.048Z,99951.03
2018-12-21T08:15:10.491Z,99946.72
2018-12-21T08:17:38.231Z,99944.09
2018-12-21T08:20:07.215Z,99942.06
2018-12-21T08:22:34.650Z,99938.14
2018-12-21T08:25:02.277Z,99931.45
2018-12-21T08:27:29.803Z,99942.07
2018-12-21T08:29:57.531Z,99945.52
2018-12-21T08:32:24.929Z,99942.66
2018-12-21T08:34:52.486Z,99942.67
2018-12-21T08:37:19.823Z,99938.13
2018-12-21T08:39:47.287Z,99939.33
2018-12-21T08:42:14.704Z,99943.14
2018-12-21T08:44:42.233Z,99934.32
2018-12-21T08:47:09.894Z,99932.64
2018-12-21T08:49:37.413Z,99913.30
2018-12-21T08:52:04.906Z,99915.37
2018-12-21T08:59:31.274Z,99890.05
2018-12-21T09:01:58.838Z,99883.86
2018-12-21T09:04:32.142Z,99879.19
2018-12-21T09:06:56.191Z,99873.84
2018-12-21T09:09:23.916Z,99847.97
2018-12-21T09:11:51.386Z,99844.48
2018-12-21T09:14:18.888Z,99837.69
2018-12-21T09:16:46.381Z,99833.14
2018-12-21T09:19:13.741Z,99840.55
2018-12-21T09:21:41.365Z,99830.27
2018-12-21T09:24:08.840Z,99816.34
2018-12-21T09:26:36.304Z,99815.70
2018-12-21T09:29:03.960Z,99809.05
2018-12-21T09:31:31.468Z,99809.14
2018-12-21T09:33:59.121Z,99795.44
2018-12-21T09:36:26.931Z,99789.10
2018-12-21T09:38:54.542Z,99780.53
2018-12-21T09:41:22.071Z,99772.63
2018-12-21T09:43:49.594Z,99757.48
2018-12-21T09:46:17.131Z,99755.24
2018-12-21T09:48:44.635Z,99751.77
2018-12-21T09:51:12.151Z,99743.87
2018-12-21T09:53:40.204Z,99735.49
2018-12-21T09:56:07.906Z,99740.39
2018-12-21T09:58:35.504Z,99746.34
2018-12-21T10:01:03.059Z,99732.63
2018-12-21T10:03:30.514Z,99727.46
2018-12-21T10:05:57.900Z,99695.61
2018-12-21T10:08:25.367Z,99726.07
2018-12-21T10:10:52.861Z,99717.69
2018-12-21T10:13:20.486Z,99706.06
2018-12-21T10:15:48.512Z,99697.96
2018-12-21T10:18:16.067Z,99704.44
2018-12-21T10:20:43.480Z,99692.20
2018-12-21T10:23:11.087Z,99683.89
2018-12-21T10:25:38.740Z,99681.27
2018-12-21T10:28:06.317Z,99673.34
2018-12-21T10:30:34.039Z,99669.67
2018-12-21T10:33:01.513Z,99666.42
2018-12-21T10:35:28.988Z,99666.53
2018-12-21T10:37:56.463Z,99651.69
2018-12-21T10:40:23.989Z,99641.23
2018-12-21T10:42:51.361Z,99639.00
2018-12-21T10:45:18.876Z,99640.33
2018-12-21T10:47:46.376Z,99627.56
2018-12-21T10:50:14.048Z,99630.88
2018-12-21T10:52:41.642Z,99627.97
2018-12-21T10:55:09.297Z,99611.23
2018-12-21T10:57:36.986Z,99607.99
2018-12-21T11:00:07.125Z,99609.37
2018-12-21T11:02:34.641Z,99598.63
2018-12-21T11:05:02.171Z,99582.78
2018-12-21T11:07:29.653Z,99580.01
2018-12-21T11:09:57.135Z,99570.76
2018-12-21T11:12:24.926Z,99561.82
2018-12-21T11:14:52.423Z,99564.59
2018-12-21T11:17:20.056Z,99551.56
2018-12-21T11:19:47.611Z,99555.51
2018-12-21T11:22:15.065Z,99543.54
2018-12-21T11:24:42.417Z,99526.44
2018-12-21T11:27:09.886Z,99530.48
2018-12-21T11:29:37.397Z,99534.39
2018-12-21T11:32:04.949Z,99533.56
2018-12-21T11:34:32.640Z,99527.45
2018-12-21T11:37:00.031Z,99516.17
2018-12-21T11:39:27.495Z,99532.42
2018-12-21T11:41:55.007Z,99530.70
2018-12-21T11:44:22.603Z,99542.73
2018-12-21T11:46:50.110Z,99531.16
2018-12-21T11:49:17.796Z,99540.62
2018-12-21T11:51:45.313Z,99547.06
2018-12-21T11:54:12.808Z,99520.59
2018-12-21T11:56:40.429Z,99519.05
2018-12-21T11:59:07.814Z,99532.96
2018-12-21T12:01:35.474Z,99533.94
2018-12-21T12:04:03.178Z,99547.81
2018-12-21T12:06:30.728Z,99545.80
2018-12-21T12:09:06.024Z,99538.56
2018-12-21T12:11:27.751Z,99541.95
2018-12-21T12:13:55.982Z,99540.58
2018-12-21T12:16:23.535Z,99544.50
2018-12-21T12:18:51.147Z,99543.72
2018-12-21T12:21:18.964Z,99550.64
2018-12-21T12:23:46.413Z,99545.38
2018-12-21T12:26:14.056Z,99563.23
2018-12-21T12:28:41.651Z,99560.55
2018-12-21T12:31:09.172Z,99555.96
2018-12-21T12:33:36.928Z,99563.23
2018-12-21T12:36:04.300Z,99553.77
2018-12-21T12:38:31.738Z,99544.78
2018-12-21T12:41:06.551Z,99546.88
2018-12-21T12:43:29.217Z,99556.81
2018-12-21T12:45:56.758Z,99550.97
2018-12-21T12:48:24.258Z,99556.77
2018-12-21T12:50:51.634Z,99561.00
2018-12-21T12:53:19.139Z,99576.06
2018-12-21T12:55:46.828Z,99571.30
2018-12-21T12:58:14.201Z,99568.91
2018-12-21T13:00:41.788Z,99569.00
2018-12-21T13:03:09.336Z,99570.22
2018-12-21T13:05:36.768Z,99569.34
2018-12-21T13:08:04.238Z,99562.98
2018-12-21T13:10:31.770Z,99567.27
2018-12-21T13:13:02.139Z,99564.57
2018-12-21T13:15:29.875Z,99563.70
2018-12-21T13:17:57.495Z,99562.95
2018-12-21T13:20:24.980Z,99563.42
2018-12-21T13:22:52.619Z,99554.14
2018-12-21T13:25:20.439Z,99560.19
2018-12-21T13:27:48.053Z,99560.02
2018-12-21T13:30:15.540Z,99553.84
2018-12-21T13:32:43.049Z,99556.47
2018-12-21T13:35:10.665Z,99554.05
2018-12-21T13:37:38.169Z,99554.88
2018-12-21T13:40:09.232Z,99543.06
2018-12-21T13:42:36.992Z,99552.83
2018-12-21T13:45:05.664Z,99551.81
2018-12-21T13:47:33.212Z,99542.05
2018-12-21T13:50:00.876Z,99541.27
2018-12-21T13:52:28.499Z,99548.47
2018-12-21T13:54:56.002Z,99543.37
2018-12-21T13:57:23.522Z,99542.89
2018-12-21T13:59:51.124Z,99547.62
2018-12-21T14:02:18.644Z,99558.33
2018-12-21T14:04:46.204Z,99563.50
2018-12-21T14:07:13.824Z,99558.43
2018-12-21T14:09:41.398Z,99560.77
2018-12-21T14:12:08.936Z,99562.31
2018-12-21T14:14:36.383Z,99539.72
2018-12-21T14:17:04.068Z,99570.11
2018-12-21T14:19:31.508Z,99557.82
2018-12-21T14:21:58.955Z,99547.08
2018-12-21T14:24:26.544Z,99537.62
2018-12-21T14:26:53.920Z,99520.63
2018-12-21T14:29:21.364Z,99542.75
2018-12-21T14:31:48.924Z,99531.51
2018-12-21T14:34:16.384Z,99545.19
2018-12-21T14:36:43.855Z,99541.81
2018-12-21T14:39:11.328Z,99541.88
2018-12-21T14:41:38.827Z,99553.44
2018-12-21T14:44:06.189Z,99546.78
2018-12-21T14:46:33.683Z,99541.75
2018-12-21T14:49:01.115Z,99535.66
2018-12-21T14:51:28.603Z,99535.76
2018-12-21T14:53:56.285Z,99540.25
2018-12-21T14:56:23.971Z,99568.40
2018-12-21T14:58:51.665Z,99563.50
2018-12-21T15:01:19.177Z,99565.63
2018-12-21T15:03:46.506Z,99565.14
2018-12-21T15:06:13.899Z,99546.78
2018-12-21T15:08:41.859Z,99567.78
2018-12-21T15:11:09.599Z,99561.39
2018-12-21T15:13:40.026Z,99571.43
2018-12-21T15:16:07.632Z,99573.23
2018-12-21T15:18:35.180Z,99579.91
2018-12-21T15:21:02.694Z,99572.52
2018-12-21T15:23:30.272Z,99574.40
2018-12-21T15:25:57.742Z,99588.80
2018-12-21T15:28:25.316Z,99585.79
2018-12-21T15:30:53.010Z,99591.63
2018-12-21T15:33:20.600Z,99596.66
2018-12-21T15:35:48.111Z,99592.67
2018-12-21T15:38:18.560Z,99591.60
2018-12-21T15:40:46.251Z,99609.95
2018-12-21T15:43:14.046Z,99579.00
2018-12-21T15:45:41.565Z,99579.11
2018-12-21T15:48:09.018Z,99578.65
2018-12-21T15:50:36.693Z,99592.17
2018-12-21T15:53:04.209Z,99567.77
2018-12-21T15:55:31.580Z,99585.89
2018-12-21T15:57:59.117Z,99602.86
2018-12-21T16:00:26.921Z,99600.39
2018-12-21T16:02:55.917Z,99601.24
2018-12-21T16:05:23.465Z,99599.66
2018-12-21T16:07:50.987Z,99601.52
2018-12-21T16:10:18.518Z,99615.20
2018-12-21T16:12:46.094Z,99610.33
2018-12-21T16:15:13.642Z,99609.55
2018-12-21T16:17:41.056Z,99612.83
2018-12-21T16:20:12.104Z,99607.49
2018-12-21T16:22:42.428Z,99617.02
2018-12-21T16:25:09.224Z,99617.33
2018-12-21T16:27:36.790Z,99625.77
2018-12-21T16:30:06.020Z,99616.38
2018-12-21T16:32:33.407Z,99620.27
2018-12-21T16:35:00.884Z,99627.06
2018-12-21T16:37:28.498Z,99626.11
2018-12-21T16:39:56.012Z,99632.55
2018-12-21T16:42:23.615Z,99642.87
2018-12-21T16:44:51.416Z,99647.27
2018-12-21T16:47:18.940Z,99656.88
2018-12-21T16:49:46.592Z,99641.78
2018-12-21T16:52:14.195Z,99644.42
2018-12-21T16:54:41.660Z,99647.06
2018-12-21T16:57:09.156Z,99653.12
2018-12-21T16:59:36.842Z,99654.48
2018-12-21T17:02:04.338Z,99650.05
2018-12-21T17:04:31.821Z,99654.21
2018-12-21T17:06:59.452Z,99660.45
2018-12-21T17:09:26.920Z,99658.61
2018-12-21T17:11:54.428Z,99661.74
2018-12-21T17:14:21.930Z,99646.44
2018-12-21T17:16:49.411Z,99656.13
2018-12-21T17:19:19.443Z,99675.58
2018-12-21T17:21:46.938Z,99664.30
2018-12-21T17:24:14.279Z,99684.46
2018-12-21T17:26:43.300Z,99683.53
2018-12-21T17:29:10.853Z,99690.81
2018-12-21T17:31:38.343Z,99701.53
2018-12-21T17:34:05.873Z,99709.79
2018-12-21T17:36:33.481Z,99713.08
2018-12-21T17:39:01.169Z,99709.14
2018-12-21T17:41:28.787Z,99714.87
2018-12-21T17:43:56.246Z,99724.66
2018-12-21T17:46:23.755Z,99727.73
2018-12-21T17:48:51.287Z,99735.11
2018-12-21T17:51:18.991Z,99727.63
2018-12-21T17:53:46.473Z,99743.97
2018-12-21T17:56:13.987Z,99749.08
2018-12-21T17:58:41.481Z,99762.67
2018-12-21T18:01:08.953Z,99767.81
2018-12-21T18:03:44.305Z,99772.35
2018-12-21T18:06:11.892Z,99779.52
2018-12-21T18:08:39.416Z,99777.96
2018-12-21T18:11:07.045Z,99773.66
2018-12-21T18:13:34.813Z,99778.41
2018-12-21T18:16:02.370Z,99787.84
2018-12-21T18:18:29.870Z,99789.17
2018-12-21T18:20:57.234Z,99780.23
2018-12-21T18:23:25.380Z,99786.28
2018-12-21T18:25:52.921Z,99795.30
2018-12-21T18:28:25.952Z,99785.59
2018-12-21T18:30:58.978Z,99793.70
2018-12-21T18:33:26.624Z,99799.33
2018-12-21T18:35:53.989Z,99800.84
2018-12-21T18:38:24.511Z,99806.39
2018-12-21T18:40:52.160Z,99803.34
2018-12-21T18:43:19.581Z,99808.56
2018-12-21T18:45:47.176Z,99810.73
2018-12-21T18:48:14.800Z,99796.55
2018-12-21T18:50:42.120Z,99802.57
2018-12-21T18:53:09.540Z,99803.66
2018-12-21T18:55:37.162Z,99796.66
2018-12-21T18:58:04.758Z,99801.73
2018-12-21T19:00:32.272Z,99806.05
2018-12-21T19:02:59.808Z,99816.69
2018-12-21T19:05:27.330Z,99817.73
2018-12-21T19:07:54.944Z,99817.94
2018-12-21T19:10:22.548Z,99807.71
2018-12-21T19:12:50.152Z,99815.66
2018-12-21T19:15:17.708Z,99810.93
2018-12-21T19:17:45.468Z,99811.06
2018-12-21T19:20:13.004Z,99809.71
2018-12-21T19:22:40.708Z,99811.95
2018-12-21T19:25:10.153Z,99813.33
2018-12-21T19:27:37.697Z,99818.95
2018-12-21T19:30:07.862Z,99823.83
2018-12-21T19:32:35.477Z,99817.09
2018-12-21T19:35:03.163Z,99813.60
2018-12-21T19:37:30.743Z,99812.69
2018-12-21T19:39:59.573Z,99812.35
2018-12-21T19:42:27.323Z,99812.72
2018-12-21T19:44:54.815Z,99815.97
2018-12-21T19:47:22.388Z,99826.63
2018-12-21T19:49:49.891Z,99823.65
2018-12-21T19:52:17.653Z,99831.22
2018-12-21T19:54:48.431Z,99835.97
2018-12-21T19:57:15.850Z,99832.55
2018-12-21T19:59:43.452Z,99837.44
2018-12-21T20:02:11.227Z,99841.23
2018-12-21T20:04:39.712Z,99839.19
2018-12-21T20:07:07.234Z,99838.80
2018-12-21T20:09:34.862Z,99842.72
2018-12-21T20:12:02.809Z,99850.88
2018-12-21T20:14:30.389Z,99853.41
2018-12-21T20:16:57.959Z,99854.36
2018-12-21T20:19:25.603Z,99856.81
2018-12-21T20:21:53.095Z,99861.01
2018-12-21T20:24:23.364Z,99867.22
2018-12-21T20:26:53.801Z,99852.23
2018-12-21T20:29:21.308Z,99857.23
2018-12-21T20:31:48.886Z,99854.66
2018-12-21T20:34:16.424Z,99848.58
2018-12-21T20:36:44.066Z,99848.36
2018-12-21T20:39:15.812Z,99854.96
2018-12-21T20:41:43.607Z,99853.61
2018-12-21T20:44:11.196Z,99852.38
2018-12-21T20:46:38.605Z,99855.91
2018-12-21T20:49:06.104Z,99850.31
2018-12-21T20:51:33.787Z,99849.66
2018-12-21T20:54:01.292Z,99848.63
2018-12-21T20:56:28.980Z,99848.23
2018-12-21T20:59:00.956Z,99854.98
2018-12-21T21:01:31.487Z,99848.39
2018-12-21T21:03:59.097Z,99860.82
2018-12-21T21:06:26.689Z,99865.80
2018-12-21T21:08:54.049Z,99861.45
2018-12-21T21:11:25.061Z,99858.38
2018-12-21T21:13:51.105Z,99859.70
2018-12-21T21:16:18.587Z,99851.38
2018-12-21T21:18:46.387Z,99872.06
2018-12-21T21:21:14.071Z,99880.03
2018-12-21T21:23:42.057Z,99874.86
2018-12-21T21:26:09.615Z,99878.62
2018-12-21T21:28:37.110Z,99870.72
2018-12-21T21:31:04.677Z,99874.68
2018-12-21T21:33:32.239Z,99881.84
2018-12-21T21:35:59.743Z,99887.41
2018-12-21T21:38:27.319Z,99887.41
2018-12-21T21:40:54.737Z,99900.39
2018-12-21T21:43:22.322Z,99902.64
2018-12-21T21:45:50.028Z,99905.84
2018-12-21T21:48:17.634Z,99897.66
2018-12-21T21:50:45.041Z,99911.03
2018-12-21T21:53:12.669Z,99913.06
2018-12-21T21:55:40.045Z,99910.14
2018-12-21T21:58:07.622Z,99918.52
2018-12-21T22:00:35.349Z,99922.69
2018-12-21T22:03:03.009Z,99930.68
2018-12-21T22:05:30.506Z,99935.28
2018-12-21T22:07:58.040Z,99942.34
2018-12-21T22:10:25.618Z,99955.27
2018-12-21T22:12:53.242Z,99960.33
2018-12-21T22:15:20.838Z,99952.21
2018-12-21T22:17:48.340Z,99957.06
2018-12-21T22:20:15.948Z,99958.11
2018-12-21T22:22:43.468Z,99964.34
2018-12-21T22:25:11.030Z,99964.84
2018-12-21T22:27:38.451Z,99968.50
2018-12-21T22:30:08.944Z,99966.08
2018-12-21T22:32:36.374Z,99970.02
2018-12-21T22:35:04.206Z,99961.42
2018-12-21T22:37:31.727Z,99971.19
2018-12-21T22:39:59.446Z,99964.80
2018-12-21T22:42:26.910Z,99957.24
2018-12-21T22:44:54.578Z,99954.69
2018-12-21T22:47:22.112Z,99948.59
2018-12-21T22:49:49.691Z,99942.42
2018-12-21T22:52:17.395Z,99950.25
2018-12-21T22:54:44.933Z,99947.27
2018-12-21T22:57:12.577Z,99948.93
2018-12-21T22:59:40.108Z,99945.59
2018-12-21T23:02:07.689Z,99947.41
2018-12-21T23:04:35.760Z,99943.87
2018-12-21T23:07:03.321Z,99946.89
2018-12-21T23:09:30.833Z,99938.88
2018-12-21T23:11:58.297Z,99956.81
2018-12-21T23:14:25.836Z,99948.92
2018-12-21T23:16:53.303Z,99958.30
2018-12-21T23:19:20.775Z,99957.72
2018-12-21T23:21:48.271Z,99964.30
2018-12-21T23:24:17.565Z,99958.49
2018-12-21T23:26:45.181Z,99949.19
2018-12-21T23:29:12.850Z,99959.48
2018-12-21T23:31:40.443Z,99959.73
2018-12-21T23:34:07.979Z,99955.53
2018-12-21T23:36:35.527Z,99955.73
2018-12-21T23:39:06.216Z,99957.28
2018-12-21T23:41:35.709Z,99952.67
2018-12-21T23:44:03.534Z,99948.28
2018-12-21T23:46:31.122Z,99952.77
2018-12-21T23:48:58.814Z,99954.09
2018-12-21T23:51:26.396Z,99949.75
2018-12-21T23:53:54.050Z,99953.25
2018-12-21T23:56:21.671Z,99950.25
2018-12-21T23:58:49.295Z,99944.00
